Time;durP1;ratioP1;P1;durP2;ratioP2;P2;SDS_P1;SDS_P2;PMS_P1;PMS_P2;Temp;Humidity;BMP_temperature;BMP_pressure;BME280_temperature;BME280_humidity;BME280_pressure;Samples;Min_cycle;Max_cycle;Signal;HPM_P1;HPM_P2
2023/04/23 06:00:56;;;;;;;25.58;5.10;;;;;;;;;;5787070;23;19925;-78
2023/04/23 06:03:21;;;;;;;22.15;4.43;;;;;;;;;;5011800;28;20390;-78
2023/04/23 06:05:47;;;;;;;24.92;4.43;;;;;;;;;;5012405;28;20042;-78
2023/04/23 06:08:12;;;;;;;19.92;4.28;;;;;;;;;;5012228;28;20041;-78
2023/04/23 06:10:38;;;;;;;35.20;5.35;;;;;;;;;;5012768;28;20046;-78
2023/04/23 06:13:03;;;;;;;28.77;4.63;;;;;;;;;;5012734;28;20048;-80
2023/04/23 06:15:28;;;;;;;36.35;5.82;;;;;;;;;;5012611;28;20125;-80
2023/04/23 06:17:54;;;;;;;27.70;4.85;;;;;;;;;;5012617;28;20433;-80
2023/04/23 06:20:19;;;;;;;36.08;5.65;;;;;;;;;;5011660;28;20049;-80
2023/04/23 06:22:45;;;;;;;31.60;5.55;;;;;;;;;;5012529;28;20092;-80
2023/04/23 06:25:10;;;;;;;32.28;6.88;;;;;;;;;;5011130;28;20516;-79
2023/04/23 06:27:35;;;;;;;40.95;6.82;;;;;;;;;;5012301;28;20046;-80
2023/04/23 06:30:01;;;;;;;45.03;6.50;;;;;;;;;;5012419;28;20429;-80
2023/04/23 06:32:26;;;;;;;46.40;8.82;;;;;;;;;;5012044;28;20045;-80
2023/04/23 06:34:51;;;;;;;41.92;7.55;;;;;;;;;;5011519;28;20414;-80
2023/04/23 06:37:17;;;;;;;34.50;7.50;;;;;;;;;;5011799;28;20050;-80
2023/04/23 06:39:42;;;;;;;46.42;7.68;;;;;;;;;;5012127;28;20041;-80
2023/04/23 06:42:07;;;;;;;35.72;7.35;;;;;;;;;;5011809;28;20053;-79
2023/04/23 06:44:33;;;;;;;31.33;7.13;;;;;;;;;;5012394;28;20470;-80
2023/04/23 06:46:58;;;;;;;34.13;6.82;;;;;;;;;;5011725;28;20038;-80
2023/04/23 06:49:24;;;;;;;38.97;6.70;;;;;;;;;;5011349;28;20037;-79
2023/04/23 06:51:49;;;;;;;31.35;6.00;;;;;;;;;;5012253;28;20088;-80
2023/04/23 06:54:16;;;;;;;28.15;6.57;;;;;;;;;;5011528;28;20038;-80
2023/04/23 06:56:41;;;;;;;45.33;7.03;;;;;;;;;;5011981;28;20050;-79
2023/04/23 06:59:07;;;;;;;36.67;5.82;;;;;;;;;;5011458;28;20061;-79
2023/04/23 07:01:34;;;;;;;38.20;6.25;;;;;;;;;;5021497;28;20043;-79
2023/04/23 07:03:59;;;;;;;34.25;5.82;;;;;;;;;;5031202;28;20041;-78
2023/04/23 07:06:26;;;;;;;35.03;5.35;;;;;;;;;;5029527;28;20111;-80
2023/04/23 07:08:52;;;;;;;29.95;5.38;;;;;;;;;;5030877;28;20531;-80
2023/04/23 07:11:17;;;;;;;31.30;4.55;;;;;;;;;;5030565;28;20049;-80
2023/04/23 07:13:42;;;;;;;31.92;4.50;;;;;;;;;;5030903;28;20045;-80
2023/04/23 07:16:08;;;;;;;33.70;3.88;;;;;;;;;;5030819;28;20087;-80
2023/04/23 07:18:33;;;;;;;18.90;3.50;;;;;;;;;;5031006;28;20071;-80
2023/04/23 07:20:59;;;;;;;29.55;4.10;;;;;;;;;;5030854;28;20063;-80
2023/04/23 07:23:24;;;;;;;21.85;4.20;;;;;;;;;;5024025;28;20049;-80
2023/04/23 07:25:50;;;;;;;18.63;3.38;;;;;;;;;;5021929;28;20128;-79
2023/04/23 07:28:16;;;;;;;22.27;3.25;;;;;;;;;;5023228;28;20487;-79
2023/04/23 07:30:41;;;;;;;17.58;3.05;;;;;;;;;;5023089;28;20156;-79
2023/04/23 07:33:07;;;;;;;22.20;3.10;;;;;;;;;;5021284;28;20045;-78
2023/04/23 07:35:32;;;;;;;28.50;3.50;;;;;;;;;;5023848;28;20041;-78
2023/04/23 07:37:57;;;;;;;17.15;2.75;;;;;;;;;;5023681;28;20033;-78
2023/04/23 07:40:24;;;;;;;24.65;3.47;;;;;;;;;;5022843;28;20128;-81
2023/04/23 07:42:50;;;;;;;15.50;2.58;;;;;;;;;;5024245;28;20099;-81
2023/04/23 07:45:16;;;;;;;15.27;2.22;;;;;;;;;;5022957;28;20042;-79
2023/04/23 07:47:41;;;;;;;11.00;1.60;;;;;;;;;;5023402;28;20399;-79
2023/04/23 07:50:08;;;;;;;7.97;1.58;;;;;;;;;;5023129;28;20476;-79
2023/04/23 07:52:33;;;;;;;11.20;1.77;;;;;;;;;;5023471;28;20056;-78
2023/04/23 07:54:58;;;;;;;9.93;1.55;;;;;;;;;;5022974;28;20037;-79
2023/04/23 07:57:24;;;;;;;8.45;1.40;;;;;;;;;;5022410;28;20053;-80
2023/04/23 07:59:49;;;;;;;9.77;1.60;;;;;;;;;;5023705;28;20895;-79
2023/04/23 08:02:15;;;;;;;11.93;1.90;;;;;;;;;;5005078;28;20041;-80
2023/04/23 08:04:40;;;;;;;12.80;2.15;;;;;;;;;;5022682;28;20111;-79
2023/04/23 08:07:06;;;;;;;11.90;2.05;;;;;;;;;;5022137;28;20052;-80
2023/04/23 08:09:31;;;;;;;7.05;1.30;;;;;;;;;;5023247;28;20049;-79
2023/04/23 08:11:57;;;;;;;8.30;1.55;;;;;;;;;;5023573;28;20095;-80
2023/04/23 08:14:22;;;;;;;8.80;1.77;;;;;;;;;;5022345;28;20041;-79
2023/04/23 08:16:47;;;;;;;6.82;1.42;;;;;;;;;;5023010;28;20041;-79
2023/04/23 08:19:13;;;;;;;4.28;1.20;;;;;;;;;;5022653;28;20053;-79
2023/04/23 08:21:38;;;;;;;5.65;1.52;;;;;;;;;;5023155;28;20046;-79
2023/04/23 08:24:06;;;;;;;6.43;1.35;;;;;;;;;;5022520;28;20050;-79
2023/04/23 08:26:32;;;;;;;7.07;1.90;;;;;;;;;;5022496;28;20564;-79
2023/04/23 08:28:59;;;;;;;4.90;1.33;;;;;;;;;;5022719;28;20057;-78
2023/04/23 08:31:24;;;;;;;4.00;1.50;;;;;;;;;;5022639;28;20402;-80
2023/04/23 08:33:50;;;;;;;5.75;1.40;;;;;;;;;;5022587;28;20053;-79
2023/04/23 08:36:15;;;;;;;5.30;1.25;;;;;;;;;;5021707;28;20037;-79
2023/04/23 08:38:41;;;;;;;3.40;1.00;;;;;;;;;;5023733;28;20065;-79
2023/04/23 08:41:10;;;;;;;3.90;1.58;;;;;;;;;;5021926;28;20501;-80
2023/04/23 08:44:14;;;;;;;7.70;2.42;;;;;;;;;;5017800;28;20072;-79
2023/04/23 08:46:42;;;;;;;6.28;2.25;;;;;;;;;;4922291;29;20043;-79
2023/04/23 08:49:16;;;;;;;5.22;2.80;;;;;;;;;;4908675;29;20473;-79
2023/04/23 08:51:53;;;;;;;4.57;2.65;;;;;;;;;;4926634;29;20228;-78
2023/04/23 08:54:26;;;;;;;5.57;3.28;;;;;;;;;;4926386;29;20047;-82
2023/04/23 08:56:56;;;;;;;6.95;3.70;;;;;;;;;;4926489;29;20058;-79
2023/04/23 08:59:21;;;;;;;6.28;3.92;;;;;;;;;;4926158;29;20059;-80
2023/04/23 09:01:48;;;;;;;6.53;3.75;;;;;;;;;;4924766;29;20412;-80
2023/04/23 09:04:15;;;;;;;7.07;3.50;;;;;;;;;;4925210;29;20170;-80
2023/04/23 09:06:42;;;;;;;6.63;4.13;;;;;;;;;;4925146;29;20543;-81
2023/04/23 09:09:08;;;;;;;8.23;4.20;;;;;;;;;;4926422;29;20545;-80
2023/04/23 09:11:36;;;;;;;9.88;5.05;;;;;;;;;;4927929;29;20050;-80
2023/04/23 09:14:01;;;;;;;10.77;4.55;;;;;;;;;;4927114;29;20051;-80
2023/04/23 09:16:27;;;;;;;6.90;3.80;;;;;;;;;;4925774;29;20424;-80
2023/04/23 09:18:52;;;;;;;6.22;3.30;;;;;;;;;;4925911;29;20230;-80
2023/04/23 09:21:19;;;;;;;5.75;2.63;;;;;;;;;;4937554;28;20111;-80
2023/04/23 09:23:45;;;;;;;5.45;2.42;;;;;;;;;;5023281;28;20091;-79
2023/04/23 09:26:19;;;;;;;4.55;2.38;;;;;;;;;;5034859;28;20475;-80
2023/04/23 09:28:48;;;;;;;4.03;2.60;;;;;;;;;;5007861;28;20095;-79
2023/04/23 09:31:14;;;;;;;6.50;2.67;;;;;;;;;;5025534;28;20076;-81
2023/04/23 09:33:40;;;;;;;4.50;2.85;;;;;;;;;;5024410;28;20045;-80
2023/04/23 09:36:14;;;;;;;4.60;3.15;;;;;;;;;;5025692;28;20597;-78
2023/04/23 09:38:42;;;;;;;4.47;3.55;;;;;;;;;;5031677;28;20052;-80
2023/04/23 09:41:28;;;;;;;5.07;3.50;;;;;;;;;;5025449;28;20079;-80
2023/04/23 09:43:56;;;;;;;4.60;3.35;;;;;;;;;;5006163;28;20129;-80
2023/04/23 09:46:36;;;;;;;3.85;3.42;;;;;;;;;;5028350;28;20080;-79
2023/04/23 09:49:04;;;;;;;6.15;4.20;;;;;;;;;;5025845;28;20045;-81
2023/04/23 09:51:30;;;;;;;5.80;4.45;;;;;;;;;;5015647;28;20516;-81
2023/04/23 09:53:57;;;;;;;7.50;4.75;;;;;;;;;;5024848;28;20053;-82
2023/04/23 09:56:23;;;;;;;6.70;4.47;;;;;;;;;;5024480;28;20049;-81
2023/04/23 09:58:49;;;;;;;8.55;4.80;;;;;;;;;;5025456;28;20038;-81
2023/04/23 10:01:14;;;;;;;6.60;5.07;;;;;;;;;;5023265;28;20053;-81
2023/04/23 10:03:43;;;;;;;7.75;4.55;;;;;;;;;;5024587;28;20041;-82
2023/04/23 10:06:15;;;;;;;7.35;5.18;;;;;;;;;;5023715;28;20060;-82
2023/04/23 10:08:41;;;;;;;7.03;5.35;;;;;;;;;;5025427;28;20048;-81
2023/04/23 10:11:06;;;;;;;8.40;5.05;;;;;;;;;;5024470;28;20124;-80
2023/04/23 10:13:35;;;;;;;8.57;4.57;;;;;;;;;;5025140;28;20065;-80
2023/04/23 10:16:03;;;;;;;8.38;5.10;;;;;;;;;;5025376;28;20152;-83
2023/04/23 10:18:31;;;;;;;8.23;4.70;;;;;;;;;;5024446;28;20115;-79
2023/04/23 10:20:57;;;;;;;8.90;5.18;;;;;;;;;;5024797;28;20033;-83
2023/04/23 10:23:23;;;;;;;7.28;4.80;;;;;;;;;;5024071;28;20048;-81
2023/04/23 10:25:51;;;;;;;7.22;4.32;;;;;;;;;;5024639;28;20098;-82
2023/04/23 10:28:25;;;;;;;7.70;4.35;;;;;;;;;;5023897;28;20057;-82
2023/04/23 10:30:52;;;;;;;8.38;4.97;;;;;;;;;;5025036;28;20136;-81
2023/04/23 10:33:19;;;;;;;7.95;4.47;;;;;;;;;;5024546;28;20510;-81
2023/04/23 10:35:46;;;;;;;7.22;4.20;;;;;;;;;;5024765;28;20128;-81
2023/04/23 10:38:12;;;;;;;6.43;4.22;;;;;;;;;;5023927;28;20079;-81
2023/04/23 10:40:40;;;;;;;4.90;3.85;;;;;;;;;;5025037;28;20120;-81
2023/04/23 10:43:06;;;;;;;4.60;3.67;;;;;;;;;;5037227;28;20057;-81
2023/04/23 10:45:31;;;;;;;5.93;4.00;;;;;;;;;;5024969;28;20337;-82
2023/04/23 10:47:57;;;;;;;4.60;3.65;;;;;;;;;;5023856;28;20076;-81
2023/04/23 10:50:25;;;;;;;5.82;4.05;;;;;;;;;;5016511;28;20053;-80
2023/04/23 10:52:52;;;;;;;4.45;3.50;;;;;;;;;;5025002;28;20052;-80
2023/04/23 10:55:20;;;;;;;7.00;3.88;;;;;;;;;;5023732;28;20092;-80
2023/04/23 10:58:00;;;;;;;7.80;4.77;;;;;;;;;;5024532;28;20103;-81
2023/04/23 11:00:27;;;;;;;6.03;3.92;;;;;;;;;;5022734;28;20951;-81
2023/04/23 11:02:54;;;;;;;7.38;4.20;;;;;;;;;;5023741;28;21572;-81
2023/04/23 11:05:22;;;;;;;5.85;3.80;;;;;;;;;;5023530;28;20112;-80
2023/04/23 11:08:05;;;;;;;7.78;3.40;;;;;;;;;;5023908;28;20095;-80
2023/04/23 11:10:31;;;;;;;4.70;3.40;;;;;;;;;;5021993;28;20053;-81
2023/04/23 11:12:57;;;;;;;5.90;2.92;;;;;;;;;;5024082;28;20041;-82
2023/04/23 11:15:22;;;;;;;3.00;2.47;;;;;;;;;;5023466;28;20041;-82
2023/04/23 11:17:51;;;;;;;5.30;2.83;;;;;;;;;;5024477;28;20069;-81
2023/04/23 11:20:21;;;;;;;5.82;2.97;;;;;;;;;;5023145;28;20045;-81
2023/04/23 11:22:48;;;;;;;4.10;2.85;;;;;;;;;;5023496;28;20045;-82
2023/04/23 11:25:18;;;;;;;5.13;2.80;;;;;;;;;;5021788;28;20045;-83
2023/04/23 11:27:45;;;;;;;6.53;3.28;;;;;;;;;;5020187;28;20120;-83
2023/04/23 11:30:14;;;;;;;6.03;3.30;;;;;;;;;;5021927;28;20064;-83
2023/04/23 11:32:41;;;;;;;5.70;3.30;;;;;;;;;;5028364;28;20131;-82
2023/04/23 11:35:08;;;;;;;6.72;3.72;;;;;;;;;;5025387;28;20067;-81
2023/04/23 11:37:38;;;;;;;8.80;4.38;;;;;;;;;;5026878;28;20128;-81
2023/04/23 11:40:12;;;;;;;5.68;3.55;;;;;;;;;;5018887;28;20041;-81
2023/04/23 11:42:45;;;;;;;6.60;3.75;;;;;;;;;;5015871;28;20394;-81
2023/04/23 11:45:24;;;;;;;5.93;3.90;;;;;;;;;;5018858;28;20165;-81
2023/04/23 11:47:54;;;;;;;8.35;4.00;;;;;;;;;;5022786;28;20056;-79
2023/04/23 11:50:40;;;;;;;7.13;3.80;;;;;;;;;;5033812;28;20053;-82
2023/04/23 11:53:08;;;;;;;6.40;3.75;;;;;;;;;;5021628;28;20705;-81
2023/04/23 11:55:33;;;;;;;6.05;3.67;;;;;;;;;;5022523;28;20132;-80
2023/04/23 11:57:59;;;;;;;5.95;3.83;;;;;;;;;;5023585;28;20561;-80
2023/04/23 12:00:25;;;;;;;7.72;3.75;;;;;;;;;;5023007;28;20041;-81
2023/04/23 12:02:59;;;;;;;7.05;4.10;;;;;;;;;;5023657;28;20529;-79
2023/04/23 12:05:28;;;;;;;6.95;3.65;;;;;;;;;;5023116;28;20133;-80
2023/04/23 12:08:06;;;;;;;6.32;3.50;;;;;;;;;;5022693;28;20069;-80
2023/04/23 12:10:32;;;;;;;8.67;4.27;;;;;;;;;;5014968;28;20060;-79
2023/04/23 12:12:57;;;;;;;9.20;4.05;;;;;;;;;;5023593;28;20037;-80
2023/04/23 12:15:22;;;;;;;8.02;3.67;;;;;;;;;;5022795;28;20502;-81
2023/04/23 12:17:50;;;;;;;9.65;4.03;;;;;;;;;;5023551;28;20876;-82
2023/04/23 12:20:20;;;;;;;5.40;3.67;;;;;;;;;;5022769;28;20042;-81
2023/04/23 12:22:46;;;;;;;6.55;3.90;;;;;;;;;;5023122;28;20568;-81
2023/04/23 12:25:11;;;;;;;8.13;4.18;;;;;;;;;;5025936;28;20060;-81
2023/04/23 12:27:44;;;;;;;5.32;3.85;;;;;;;;;;5027128;28;20040;-82
2023/04/23 12:30:10;;;;;;;6.93;4.07;;;;;;;;;;5026391;28;20425;-81
2023/04/23 12:32:37;;;;;;;11.70;4.57;;;;;;;;;;5025949;28;20056;-81
2023/04/23 12:35:05;;;;;;;9.00;4.22;;;;;;;;;;5025407;28;20506;-81
2023/04/23 12:37:35;;;;;;;8.85;4.70;;;;;;;;;;5026037;28;20046;-81
2023/04/23 12:40:01;;;;;;;7.45;4.03;;;;;;;;;;5026250;28;20041;-81
2023/04/23 12:42:27;;;;;;;8.88;5.07;;;;;;;;;;5026205;28;20150;-79
2023/04/23 12:44:54;;;;;;;14.00;4.47;;;;;;;;;;5026628;28;20187;-80
2023/04/23 12:47:19;;;;;;;11.90;5.53;;;;;;;;;;5026601;28;20099;-81
2023/04/23 12:49:45;;;;;;;12.50;5.13;;;;;;;;;;5026505;28;20049;-81
2023/04/23 12:52:11;;;;;;;10.18;5.00;;;;;;;;;;5025774;28;20585;-81
2023/04/23 12:54:38;;;;;;;9.65;5.00;;;;;;;;;;5026516;28;20049;-81
2023/04/23 12:57:07;;;;;;;12.02;5.32;;;;;;;;;;5026038;28;20148;-81
2023/04/23 12:59:32;;;;;;;10.20;5.07;;;;;;;;;;5026173;28;20136;-82
2023/04/23 13:02:02;;;;;;;13.23;5.28;;;;;;;;;;5026608;28;20244;-81
2023/04/23 13:04:32;;;;;;;9.20;5.00;;;;;;;;;;5025042;28;20057;-82
2023/04/23 13:06:58;;;;;;;16.08;6.20;;;;;;;;;;5026452;28;20510;-82
2023/04/23 13:09:25;;;;;;;11.13;5.53;;;;;;;;;;5025571;28;20053;-82
2023/04/23 13:11:50;;;;;;;12.30;6.07;;;;;;;;;;5026339;28;20041;-82
2023/04/23 13:14:16;;;;;;;12.05;5.13;;;;;;;;;;5025905;28;20100;-82
2023/04/23 13:16:42;;;;;;;12.27;5.00;;;;;;;;;;5026047;28;20057;-80
2023/04/23 13:19:08;;;;;;;12.07;4.53;;;;;;;;;;5025081;28;20037;-81
2023/04/23 13:21:33;;;;;;;11.60;4.55;;;;;;;;;;5008264;28;20069;-82
2023/04/23 13:23:59;;;;;;;10.45;3.95;;;;;;;;;;5025860;28;20038;-81
2023/04/23 13:26:25;;;;;;;13.90;4.05;;;;;;;;;;5024326;28;20476;-83
2023/04/23 13:28:50;;;;;;;8.85;3.20;;;;;;;;;;5007528;28;20215;-80
2023/04/23 13:31:16;;;;;;;9.75;3.80;;;;;;;;;;5023995;28;20417;-79
2023/04/23 13:33:41;;;;;;;9.35;3.25;;;;;;;;;;5024872;28;20073;-79
2023/04/23 13:36:07;;;;;;;12.07;3.63;;;;;;;;;;5024049;28;20048;-79
2023/04/23 13:38:33;;;;;;;10.73;3.88;;;;;;;;;;5024848;28;20049;-82
2023/04/23 13:40:58;;;;;;;9.95;3.28;;;;;;;;;;5025361;28;20041;-81
2023/04/23 13:43:24;;;;;;;8.68;3.33;;;;;;;;;;5025742;28;20072;-83
2023/04/23 13:45:52;;;;;;;5.95;2.72;;;;;;;;;;5025878;28;20421;-82
2023/04/23 13:48:18;;;;;;;6.25;2.50;;;;;;;;;;5024975;28;20038;-81
2023/04/23 13:50:43;;;;;;;7.47;2.67;;;;;;;;;;5024862;28;20421;-83
2023/04/23 13:53:09;;;;;;;7.57;2.83;;;;;;;;;;5025028;28;20148;-83
2023/04/23 13:55:35;;;;;;;11.43;3.03;;;;;;;;;;5025452;28;20045;-83
2023/04/23 13:58:02;;;;;;;11.18;2.80;;;;;;;;;;5025917;28;20548;-83
2023/04/23 14:00:28;;;;;;;7.88;2.80;;;;;;;;;;5023738;28;20049;-82
2023/04/23 14:02:54;;;;;;;8.55;2.60;;;;;;;;;;5025511;28;20133;-82
2023/04/23 14:05:20;;;;;;;9.73;2.90;;;;;;;;;;5028843;28;20116;-81
2023/04/23 14:07:46;;;;;;;9.63;2.88;;;;;;;;;;5030491;28;20096;-82
2023/04/23 14:10:11;;;;;;;9.75;2.70;;;;;;;;;;5013550;28;20501;-82
2023/04/23 14:12:37;;;;;;;7.22;2.60;;;;;;;;;;5030149;28;20494;-82
2023/04/23 14:15:05;;;;;;;8.25;2.65;;;;;;;;;;5032351;28;20457;-82
2023/04/23 14:17:30;;;;;;;9.57;2.50;;;;;;;;;;5031630;28;20094;-82
2023/04/23 14:19:56;;;;;;;4.90;1.88;;;;;;;;;;5031712;28;20121;-82
2023/04/23 14:22:21;;;;;;;7.07;2.42;;;;;;;;;;5031613;28;20057;-82
2023/04/23 14:24:55;;;;;;;8.05;2.30;;;;;;;;;;5032307;28;20049;-81
2023/04/23 14:27:20;;;;;;;4.75;1.92;;;;;;;;;;5013804;28;20120;-82
2023/04/23 14:29:50;;;;;;;8.65;2.53;;;;;;;;;;5031674;28;20057;-82
2023/04/23 14:32:15;;;;;;;8.38;2.92;;;;;;;;;;5031212;28;20052;-82
2023/04/23 14:34:40;;;;;;;9.25;2.92;;;;;;;;;;5031415;28;20041;-82
2023/04/23 14:37:06;;;;;;;10.73;2.25;;;;;;;;;;5031356;28;20038;-82
2023/04/23 14:39:33;;;;;;;9.73;2.72;;;;;;;;;;5031530;28;20115;-82
2023/04/23 14:41:58;;;;;;;12.02;2.80;;;;;;;;;;5031813;28;20065;-82
2023/04/23 14:44:25;;;;;;;9.48;2.40;;;;;;;;;;5031129;28;20511;-82
2023/04/23 14:46:51;;;;;;;9.50;2.70;;;;;;;;;;5030971;28;20046;-81
2023/04/23 14:49:18;;;;;;;10.20;2.88;;;;;;;;;;5030608;28;20145;-82
2023/04/23 14:51:43;;;;;;;7.15;2.13;;;;;;;;;;5030952;28;20041;-82
2023/04/23 14:54:09;;;;;;;8.85;2.33;;;;;;;;;;5030988;28;20563;-81
2023/04/23 14:56:36;;;;;;;7.75;2.40;;;;;;;;;;5031384;28;20052;-81
2023/04/23 14:59:01;;;;;;;9.80;2.70;;;;;;;;;;5030796;28;20120;-81
2023/04/23 15:01:28;;;;;;;11.43;2.47;;;;;;;;;;5034008;28;20124;-82
2023/04/23 15:03:53;;;;;;;6.22;3.08;;;;;;;;;;5030648;28;20516;-83
2023/04/23 15:06:19;;;;;;;7.50;2.38;;;;;;;;;;5025927;28;20041;-81
2023/04/23 15:08:44;;;;;;;7.80;2.30;;;;;;;;;;5025120;28;20037;-82
2023/04/23 15:11:12;;;;;;;9.70;2.60;;;;;;;;;;5020420;28;20133;-80
2023/04/23 15:14:14;;;;;;;12.07;2.85;;;;;;;;;;5030324;28;20041;-81
2023/04/23 15:16:40;;;;;;;10.02;3.72;;;;;;;;;;5026541;28;20048;-80
2023/04/23 15:19:05;;;;;;;8.40;3.10;;;;;;;;;;5040218;28;20034;-81
2023/04/23 15:21:31;;;;;;;7.28;2.42;;;;;;;;;;5020988;28;20568;-80
2023/04/23 15:23:57;;;;;;;7.07;2.65;;;;;;;;;;5036775;28;20061;-80
2023/04/23 15:26:24;;;;;;;9.32;2.42;;;;;;;;;;5034632;28;20103;-80
2023/04/23 15:28:50;;;;;;;6.25;2.35;;;;;;;;;;5035347;28;20053;-79
2023/04/23 15:31:15;;;;;;;7.53;2.50;;;;;;;;;;5030225;28;20501;-80
2023/04/23 15:33:40;;;;;;;8.93;2.13;;;;;;;;;;5030263;28;20046;-80
2023/04/23 15:36:06;;;;;;;8.63;2.05;;;;;;;;;;5029174;28;20065;-80
2023/04/23 15:38:32;;;;;;;9.18;2.22;;;;;;;;;;5029998;28;20448;-80
2023/04/23 15:40:58;;;;;;;8.15;2.25;;;;;;;;;;5030664;28;20041;-81
2023/04/23 15:43:24;;;;;;;7.57;2.50;;;;;;;;;;5029606;28;20103;-79
2023/04/23 15:45:51;;;;;;;12.02;2.88;;;;;;;;;;5029908;28;20041;-80
2023/04/23 15:48:16;;;;;;;8.88;2.80;;;;;;;;;;5029222;28;20061;-79
2023/04/23 15:50:42;;;;;;;8.30;2.50;;;;;;;;;;5015028;28;20036;-78
2023/04/23 15:53:08;;;;;;;6.10;3.20;;;;;;;;;;5013205;28;20520;-81
2023/04/23 15:55:34;;;;;;;6.97;3.35;;;;;;;;;;5030285;28;20517;-80
2023/04/23 15:58:03;;;;;;;11.68;3.28;;;;;;;;;;5030835;28;20050;-80
2023/04/23 16:00:29;;;;;;;11.77;3.25;;;;;;;;;;5033923;28;20041;-79
2023/04/23 16:02:57;;;;;;;12.48;3.65;;;;;;;;;;5033933;28;20050;-79
2023/04/23 16:05:22;;;;;;;9.85;4.05;;;;;;;;;;5033905;28;20116;-80
2023/04/23 16:07:48;;;;;;;11.65;4.10;;;;;;;;;;5030691;28;20045;-82
2023/04/23 16:10:13;;;;;;;14.48;4.20;;;;;;;;;;5020233;28;20460;-81
2023/04/23 16:12:44;;;;;;;12.38;4.05;;;;;;;;;;5032434;28;20103;-80
2023/04/23 16:15:10;;;;;;;12.23;5.05;;;;;;;;;;5037015;28;20121;-81
2023/04/23 16:17:36;;;;;;;13.00;4.72;;;;;;;;;;5051446;28;20090;-80
2023/04/23 16:20:03;;;;;;;11.65;4.47;;;;;;;;;;5046012;28;20132;-80
2023/04/23 16:22:29;;;;;;;10.20;3.88;;;;;;;;;;5027710;28;20497;-81
2023/04/23 16:24:54;;;;;;;10.80;4.20;;;;;;;;;;5047644;28;20044;-81
2023/04/23 16:27:19;;;;;;;9.52;3.95;;;;;;;;;;5033316;28;20524;-81
2023/04/23 16:29:45;;;;;;;9.05;4.43;;;;;;;;;;5033926;28;20045;-81
2023/04/23 16:32:10;;;;;;;17.17;4.97;;;;;;;;;;5033611;28;20045;-81
2023/04/23 16:34:36;;;;;;;11.60;4.57;;;;;;;;;;5033850;28;20048;-81
2023/04/23 16:37:01;;;;;;;13.52;5.00;;;;;;;;;;5033888;28;20041;-81
2023/04/23 16:39:26;;;;;;;12.52;5.00;;;;;;;;;;5033378;28;20053;-82
2023/04/23 16:41:52;;;;;;;10.18;4.50;;;;;;;;;;5033867;28;20041;-80
2023/04/23 16:44:18;;;;;;;17.63;4.78;;;;;;;;;;5035123;28;20038;-81
2023/04/23 16:46:43;;;;;;;13.15;4.53;;;;;;;;;;5034010;28;20041;-81
2023/04/23 16:49:09;;;;;;;11.85;4.15;;;;;;;;;;5032788;28;20469;-81
2023/04/23 16:51:34;;;;;;;12.90;4.57;;;;;;;;;;5033331;28;20045;-81
2023/04/23 16:54:00;;;;;;;11.48;4.85;;;;;;;;;;5023020;28;20121;-80
2023/04/23 16:56:26;;;;;;;13.60;4.57;;;;;;;;;;5013389;28;20046;-81
2023/04/23 16:58:51;;;;;;;10.82;4.75;;;;;;;;;;5013660;28;20054;-80
2023/04/23 17:01:17;;;;;;;15.60;4.72;;;;;;;;;;5023120;28;20064;-81
2023/04/23 17:03:45;;;;;;;8.77;4.30;;;;;;;;;;5033216;28;20038;-81
2023/04/23 17:06:19;;;;;;;12.00;4.38;;;;;;;;;;5033614;28;20066;-81
2023/04/23 17:08:45;;;;;;;9.13;4.38;;;;;;;;;;5033771;28;20124;-81
2023/04/23 17:11:10;;;;;;;15.27;4.25;;;;;;;;;;5030240;28;20116;-81
2023/04/23 17:13:36;;;;;;;8.52;4.00;;;;;;;;;;5032435;28;20492;-80
2023/04/23 17:16:01;;;;;;;14.43;4.85;;;;;;;;;;5042848;28;20049;-83
2023/04/23 17:18:27;;;;;;;10.05;4.13;;;;;;;;;;5033741;28;20096;-81
2023/04/23 17:20:53;;;;;;;15.30;4.50;;;;;;;;;;5043296;28;20052;-80
2023/04/23 17:23:19;;;;;;;12.95;4.60;;;;;;;;;;5035329;28;20061;-80
2023/04/23 17:25:44;;;;;;;10.15;4.75;;;;;;;;;;5032411;28;20036;-81
2023/04/23 17:28:10;;;;;;;12.45;4.82;;;;;;;;;;5039568;28;20053;-80
2023/04/23 17:30:36;;;;;;;9.43;4.80;;;;;;;;;;5035384;28;20049;-80
2023/04/23 17:33:01;;;;;;;12.43;4.75;;;;;;;;;;5043123;28;20049;-80
2023/04/23 17:35:27;;;;;;;11.23;4.78;;;;;;;;;;5047418;28;20095;-80
2023/04/23 17:37:52;;;;;;;16.60;5.00;;;;;;;;;;5045720;28;20045;-79
2023/04/23 17:40:18;;;;;;;17.85;4.85;;;;;;;;;;5025680;28;20045;-79
2023/04/23 17:42:43;;;;;;;13.57;5.38;;;;;;;;;;5026447;28;20120;-80
2023/04/23 17:45:10;;;;;;;13.38;4.88;;;;;;;;;;5025870;28;20053;-79
2023/04/23 17:47:36;;;;;;;11.52;4.80;;;;;;;;;;5026888;28;20359;-81
2023/04/23 17:50:02;;;;;;;10.63;4.45;;;;;;;;;;5026416;28;20473;-79
2023/04/23 17:52:27;;;;;;;11.77;5.00;;;;;;;;;;5026040;28;20045;-80
2023/04/23 17:54:52;;;;;;;13.23;4.88;;;;;;;;;;5026433;28;20505;-80
2023/04/23 17:57:18;;;;;;;15.13;4.85;;;;;;;;;;5024351;28;20049;-80
2023/04/23 17:59:43;;;;;;;17.15;4.88;;;;;;;;;;5026510;28;20045;-79
2023/04/23 18:02:09;;;;;;;14.52;5.25;;;;;;;;;;5024913;28;20052;-79
2023/04/23 18:04:35;;;;;;;18.73;5.45;;;;;;;;;;5025393;28;20625;-79
2023/04/23 18:07:00;;;;;;;11.93;4.97;;;;;;;;;;5025074;28;20041;-80
2023/04/23 18:09:26;;;;;;;20.20;5.05;;;;;;;;;;5008212;28;20053;-83
2023/04/23 18:11:54;;;;;;;14.05;4.75;;;;;;;;;;5030258;28;20077;-80
2023/04/23 18:14:19;;;;;;;14.85;5.10;;;;;;;;;;5030121;28;20069;-82
2023/04/23 18:16:45;;;;;;;18.85;4.93;;;;;;;;;;5028897;28;20061;-81
2023/04/23 18:19:10;;;;;;;14.68;4.68;;;;;;;;;;5037273;28;20471;-82
2023/04/23 18:21:36;;;;;;;14.85;5.18;;;;;;;;;;5041056;28;20045;-82
2023/04/23 18:24:02;;;;;;;16.55;4.72;;;;;;;;;;5032051;28;20042;-82
2023/04/23 18:26:27;;;;;;;12.93;4.95;;;;;;;;;;5039379;28;20110;-80
2023/04/23 18:28:53;;;;;;;13.70;5.38;;;;;;;;;;5048816;28;20371;-81
2023/04/23 18:31:18;;;;;;;15.48;4.82;;;;;;;;;;5030853;28;20084;-80
2023/04/23 18:33:52;;;;;;;14.20;5.10;;;;;;;;;;5027521;28;20464;-79
2023/04/23 18:36:28;;;;;;;15.35;5.20;;;;;;;;;;5030430;28;20049;-79
2023/04/23 18:38:54;;;;;;;14.82;4.90;;;;;;;;;;5031452;28;20472;-79
2023/04/23 18:41:19;;;;;;;22.45;5.13;;;;;;;;;;5027455;28;20120;-78
2023/04/23 18:43:45;;;;;;;12.40;5.53;;;;;;;;;;5025232;28;20168;-84
2023/04/23 18:46:11;;;;;;;14.88;4.78;;;;;;;;;;5022589;28;20046;-83
2023/04/23 18:48:46;;;;;;;15.80;5.22;;;;;;;;;;5023613;28;20068;-82
2023/04/23 18:51:17;;;;;;;20.00;5.50;;;;;;;;;;5022778;28;20056;-82
2023/04/23 18:53:43;;;;;;;19.63;5.70;;;;;;;;;;5022354;28;20076;-85
2023/04/23 18:56:08;;;;;;;14.38;5.65;;;;;;;;;;5017894;28;20087;-84
2023/04/23 18:58:34;;;;;;;15.55;5.15;;;;;;;;;;5022212;28;20410;-83
2023/04/23 19:00:59;;;;;;;16.65;5.68;;;;;;;;;;5019745;28;20080;-83
2023/04/23 19:03:25;;;;;;;14.50;5.95;;;;;;;;;;5021337;28;20048;-83
2023/04/23 19:05:50;;;;;;;17.48;6.13;;;;;;;;;;5023186;28;20068;-85
2023/04/23 19:08:16;;;;;;;17.73;6.15;;;;;;;;;;5022085;28;20053;-84
2023/04/23 19:10:41;;;;;;;20.00;6.60;;;;;;;;;;5019774;28;20044;-83
2023/04/23 19:13:08;;;;;;;17.33;6.65;;;;;;;;;;5020216;28;20165;-83
2023/04/23 19:15:33;;;;;;;18.70;6.15;;;;;;;;;;5018830;28;20045;-83
2023/04/23 19:17:59;;;;;;;25.95;7.45;;;;;;;;;;5024818;28;20448;-83
2023/04/23 19:20:24;;;;;;;19.13;7.35;;;;;;;;;;5026896;28;20064;-83
2023/04/23 19:22:50;;;;;;;21.70;7.13;;;;;;;;;;5023698;28;20037;-84
2023/04/23 19:25:15;;;;;;;18.90;6.90;;;;;;;;;;5024998;28;20061;-82
2023/04/23 19:27:41;;;;;;;21.60;7.03;;;;;;;;;;5023017;28;20049;-83
2023/04/23 19:30:09;;;;;;;21.23;7.53;;;;;;;;;;5022624;28;20045;-82
2023/04/23 19:32:34;;;;;;;18.93;7.47;;;;;;;;;;5023015;28;20041;-81
2023/04/23 19:35:00;;;;;;;23.20;6.75;;;;;;;;;;5023143;28;20060;-82
2023/04/23 19:37:25;;;;;;;17.25;6.38;;;;;;;;;;5026234;28;20076;-81
2023/04/23 19:39:51;;;;;;;26.13;6.95;;;;;;;;;;5023640;28;20048;-81
2023/04/23 19:42:17;;;;;;;15.95;5.75;;;;;;;;;;5022951;28;20160;-81
2023/04/23 19:44:43;;;;;;;22.02;6.38;;;;;;;;;;5024145;28;20099;-80
2023/04/23 19:47:08;;;;;;;23.38;6.45;;;;;;;;;;5022958;28;20387;-84
2023/04/23 19:49:34;;;;;;;21.52;6.43;;;;;;;;;;5023764;28;20369;-82
2023/04/23 19:52:02;;;;;;;18.70;5.22;;;;;;;;;;5023654;28;20064;-83
2023/04/23 19:54:27;;;;;;;23.58;5.50;;;;;;;;;;5025240;28;20111;-82
2023/04/23 19:56:53;;;;;;;27.10;6.18;;;;;;;;;;5024023;28;20646;-82
2023/04/23 19:59:19;;;;;;;24.95;5.68;;;;;;;;;;5023096;28;20045;-82
2023/04/23 20:01:46;;;;;;;27.63;5.82;;;;;;;;;;5023147;28;20520;-82
2023/04/23 20:04:12;;;;;;;19.50;4.70;;;;;;;;;;5025558;28;20041;-82
2023/04/23 20:06:37;;;;;;;22.30;4.72;;;;;;;;;;5026319;28;20055;-83
2023/04/23 20:09:05;;;;;;;20.83;5.63;;;;;;;;;;5022674;28;20037;-83
2023/04/23 20:11:31;;;;;;;25.42;4.97;;;;;;;;;;5022439;28;20045;-83
2023/04/23 20:13:57;;;;;;;17.90;4.55;;;;;;;;;;5022747;28;20041;-82
2023/04/23 20:16:22;;;;;;;24.58;4.90;;;;;;;;;;5016668;28;21498;-82
2023/04/23 20:18:48;;;;;;;21.58;4.82;;;;;;;;;;5019849;28;20145;-83
2023/04/23 20:21:14;;;;;;;14.07;4.55;;;;;;;;;;5021890;28;20053;-82
2023/04/23 20:23:40;;;;;;;22.67;4.53;;;;;;;;;;5005328;28;20046;-82
2023/04/23 20:26:08;;;;;;;23.00;5.55;;;;;;;;;;5028672;28;20143;-80
2023/04/23 20:28:34;;;;;;;26.33;4.50;;;;;;;;;;5028717;28;20033;-81
2023/04/23 20:30:59;;;;;;;23.08;5.03;;;;;;;;;;5029372;28;20044;-82
2023/04/23 20:33:25;;;;;;;26.15;5.45;;;;;;;;;;5029199;28;20045;-80